sensor_id;sensor_type;location;lat;lon;timestamp;P1;durP1;ratioP1;P2;durP2;ratioP2
45909;SDS011;31622;55.416;37.840;2023-03-29T00:01:47;1.55;;;0.90;;
45909;SDS011;31622;55.416;37.840;2023-03-29T00:04:14;1.95;;;1.10;;
45909;SDS011;31622;55.416;37.840;2023-03-29T00:06:47;1.90;;;1.17;;
45909;SDS011;31622;55.416;37.840;2023-03-29T00:09:13;1.73;;;1.08;;
45909;SDS011;31622;55.416;37.840;2023-03-29T00:11:39;1.50;;;1.00;;
45909;SDS011;31622;55.416;37.840;2023-03-29T00:14:05;2.35;;;1.45;;
45909;SDS011;31622;55.416;37.840;2023-03-29T00:16:31;1.60;;;1.10;;
45909;SDS011;31622;55.416;37.840;2023-03-29T00:18:57;2.10;;;1.00;;
45909;SDS011;31622;55.416;37.840;2023-03-29T00:21:23;1.58;;;1.00;;
45909;SDS011;31622;55.416;37.840;2023-03-29T00:23:48;2.22;;;1.10;;
45909;SDS011;31622;55.416;37.840;2023-03-29T00:26:14;1.55;;;1.10;;
45909;SDS011;31622;55.416;37.840;2023-03-29T00:28:40;2.50;;;1.20;;
45909;SDS011;31622;55.416;37.840;2023-03-29T00:31:07;2.20;;;1.50;;
45909;SDS011;31622;55.416;37.840;2023-03-29T00:33:35;2.00;;;1.23;;
45909;SDS011;31622;55.416;37.840;2023-03-29T00:36:01;3.15;;;1.42;;
45909;SDS011;31622;55.416;37.840;2023-03-29T00:38:28;1.75;;;1.20;;
45909;SDS011;31622;55.416;37.840;2023-03-29T00:40:55;3.08;;;1.25;;
45909;SDS011;31622;55.416;37.840;2023-03-29T00:43:21;2.20;;;1.10;;
45909;SDS011;31622;55.416;37.840;2023-03-29T00:45:48;2.30;;;1.15;;
45909;SDS011;31622;55.416;37.840;2023-03-29T00:48:18;1.42;;;0.90;;
45909;SDS011;31622;55.416;37.840;2023-03-29T00:50:51;1.63;;;0.98;;
45909;SDS011;31622;55.416;37.840;2023-03-29T00:53:22;1.50;;;0.80;;
45909;SDS011;31622;55.416;37.840;2023-03-29T00:55:54;1.70;;;1.02;;
45909;SDS011;31622;55.416;37.840;2023-03-29T00:58:33;2.10;;;1.20;;
45909;SDS011;31622;55.416;37.840;2023-03-29T01:01:04;1.75;;;1.00;;
45909;SDS011;31622;55.416;37.840;2023-03-29T01:03:34;1.33;;;1.00;;
45909;SDS011;31622;55.416;37.840;2023-03-29T01:06:06;1.20;;;0.88;;
45909;SDS011;31622;55.416;37.840;2023-03-29T01:08:55;1.50;;;0.90;;
45909;SDS011;31622;55.416;37.840;2023-03-29T01:11:24;3.47;;;1.20;;
45909;SDS011;31622;55.416;37.840;2023-03-29T01:13:57;1.38;;;0.98;;
45909;SDS011;31622;55.416;37.840;2023-03-29T01:16:28;1.65;;;0.95;;
45909;SDS011;31622;55.416;37.840;2023-03-29T01:18:55;1.30;;;0.70;;
45909;SDS011;31622;55.416;37.840;2023-03-29T01:22:00;1.83;;;1.00;;
45909;SDS011;31622;55.416;37.840;2023-03-29T01:29:27;3.88;;;0.93;;
45909;SDS011;31622;55.416;37.840;2023-03-29T01:32:02;1.30;;;0.80;;
45909;SDS011;31622;55.416;37.840;2023-03-29T01:37:23;1.92;;;1.00;;
45909;SDS011;31622;55.416;37.840;2023-03-29T01:40:13;1.38;;;0.88;;
45909;SDS011;31622;55.416;37.840;2023-03-29T01:46:23;1.13;;;0.63;;
45909;SDS011;31622;55.416;37.840;2023-03-29T01:48:34;1.40;;;0.85;;
45909;SDS011;31622;55.416;37.840;2023-03-29T01:53:33;1.20;;;0.75;;
45909;SDS011;31622;55.416;37.840;2023-03-29T01:56:18;1.53;;;0.83;;
45909;SDS011;31622;55.416;37.840;2023-03-29T01:58:49;1.55;;;0.70;;
45909;SDS011;31622;55.416;37.840;2023-03-29T02:01:24;1.42;;;0.82;;
45909;SDS011;31622;55.416;37.840;2023-03-29T02:03:55;1.10;;;0.60;;
45909;SDS011;31622;55.416;37.840;2023-03-29T02:06:25;1.85;;;1.00;;
45909;SDS011;31622;55.416;37.840;2023-03-29T02:08:52;1.35;;;0.80;;
45909;SDS011;31622;55.416;37.840;2023-03-29T02:11:18;1.60;;;1.10;;
45909;SDS011;31622;55.416;37.840;2023-03-29T02:13:44;1.88;;;0.93;;
45909;SDS011;31622;55.416;37.840;2023-03-29T02:16:10;1.70;;;0.90;;
45909;SDS011;31622;55.416;37.840;2023-03-29T02:18:38;1.30;;;0.77;;
45909;SDS011;31622;55.416;37.840;2023-03-29T02:21:06;1.25;;;0.90;;
45909;SDS011;31622;55.416;37.840;2023-03-29T02:23:34;1.95;;;1.10;;
45909;SDS011;31622;55.416;37.840;2023-03-29T02:26:09;1.65;;;0.88;;
45909;SDS011;31622;55.416;37.840;2023-03-29T02:28:35;1.50;;;0.98;;
45909;SDS011;31622;55.416;37.840;2023-03-29T02:31:11;1.10;;;0.80;;
45909;SDS011;31622;55.416;37.840;2023-03-29T02:36:30;1.23;;;0.80;;
45909;SDS011;31622;55.416;37.840;2023-03-29T02:39:02;8.30;;;1.20;;
45909;SDS011;31622;55.416;37.840;2023-03-29T02:41:30;6.38;;;1.40;;
45909;SDS011;31622;55.416;37.840;2023-03-29T02:43:58;2.60;;;1.05;;
45909;SDS011;31622;55.416;37.840;2023-03-29T02:46:25;4.95;;;1.05;;
45909;SDS011;31622;55.416;37.840;2023-03-29T02:48:51;9.98;;;1.75;;
45909;SDS011;31622;55.416;37.840;2023-03-29T02:51:28;11.80;;;2.53;;
45909;SDS011;31622;55.416;37.840;2023-03-29T02:56:28;11.23;;;2.00;;
45909;SDS011;31622;55.416;37.840;2023-03-29T02:58:54;14.10;;;2.20;;
45909;SDS011;31622;55.416;37.840;2023-03-29T03:01:20;12.32;;;2.20;;
45909;SDS011;31622;55.416;37.840;2023-03-29T03:03:48;8.40;;;1.60;;
45909;SDS011;31622;55.416;37.840;2023-03-29T03:06:16;8.20;;;1.85;;
45909;SDS011;31622;55.416;37.840;2023-03-29T03:08:43;4.07;;;1.40;;
45909;SDS011;31622;55.416;37.840;2023-03-29T03:11:08;4.95;;;1.38;;
45909;SDS011;31622;55.416;37.840;2023-03-29T03:13:34;4.15;;;1.35;;
45909;SDS011;31622;55.416;37.840;2023-03-29T03:16:00;3.70;;;1.98;;
45909;SDS011;31622;55.416;37.840;2023-03-29T03:18:27;6.50;;;1.30;;
45909;SDS011;31622;55.416;37.840;2023-03-29T03:20:54;3.95;;;1.30;;
45909;SDS011;31622;55.416;37.840;2023-03-29T03:23:20;3.42;;;1.20;;
45909;SDS011;31622;55.416;37.840;2023-03-29T03:25:47;2.22;;;1.15;;
45909;SDS011;31622;55.416;37.840;2023-03-29T03:28:13;4.35;;;1.55;;
45909;SDS011;31622;55.416;37.840;2023-03-29T03:30:39;5.22;;;1.20;;
45909;SDS011;31622;55.416;37.840;2023-03-29T03:33:23;4.25;;;1.35;;
45909;SDS011;31622;55.416;37.840;2023-03-29T03:36:17;3.55;;;1.17;;
45909;SDS011;31622;55.416;37.840;2023-03-29T03:38:44;2.20;;;1.00;;
45909;SDS011;31622;55.416;37.840;2023-03-29T03:41:10;1.77;;;1.20;;
45909;SDS011;31622;55.416;37.840;2023-03-29T03:43:37;2.80;;;1.40;;
45909;SDS011;31622;55.416;37.840;2023-03-29T03:46:05;2.67;;;1.20;;
45909;SDS011;31622;55.416;37.840;2023-03-29T03:48:33;1.92;;;1.33;;
45909;SDS011;31622;55.416;37.840;2023-03-29T03:51:08;3.42;;;1.10;;
45909;SDS011;31622;55.416;37.840;2023-03-29T03:53:34;4.05;;;1.45;;
45909;SDS011;31622;55.416;37.840;2023-03-29T03:56:12;2.22;;;1.23;;
45909;SDS011;31622;55.416;37.840;2023-03-29T03:58:57;2.40;;;1.50;;
45909;SDS011;31622;55.416;37.840;2023-03-29T04:01:24;5.38;;;0.90;;
45909;SDS011;31622;55.416;37.840;2023-03-29T04:04:01;1.90;;;1.10;;
45909;SDS011;31622;55.416;37.840;2023-03-29T04:06:28;2.85;;;1.27;;
45909;SDS011;31622;55.416;37.840;2023-03-29T04:09:13;3.63;;;1.25;;
45909;SDS011;31622;55.416;37.840;2023-03-29T04:11:42;2.80;;;1.60;;
45909;SDS011;31622;55.416;37.840;2023-03-29T04:14:08;3.08;;;1.23;;
45909;SDS011;31622;55.416;37.840;2023-03-29T04:17:03;3.83;;;1.10;;
45909;SDS011;31622;55.416;37.840;2023-03-29T04:20:07;2.50;;;1.10;;
45909;SDS011;31622;55.416;37.840;2023-03-29T04:22:35;3.53;;;1.48;;
45909;SDS011;31622;55.416;37.840;2023-03-29T04:25:01;2.95;;;0.95;;
45909;SDS011;31622;55.416;37.840;2023-03-29T04:27:30;1.92;;;1.20;;
45909;SDS011;31622;55.416;37.840;2023-03-29T04:29:59;1.63;;;1.02;;
45909;SDS011;31622;55.416;37.840;2023-03-29T04:32:45;1.73;;;0.95;;
45909;SDS011;31622;55.416;37.840;2023-03-29T04:35:11;2.85;;;1.10;;
45909;SDS011;31622;55.416;37.840;2023-03-29T04:37:37;4.45;;;1.60;;
45909;SDS011;31622;55.416;37.840;2023-03-29T04:40:07;4.40;;;1.52;;
45909;SDS011;31622;55.416;37.840;2023-03-29T04:42:45;3.58;;;1.92;;
45909;SDS011;31622;55.416;37.840;2023-03-29T04:45:12;3.47;;;1.70;;
45909;SDS011;31622;55.416;37.840;2023-03-29T04:47:57;3.20;;;1.88;;
45909;SDS011;31622;55.416;37.840;2023-03-29T04:50:25;2.70;;;1.50;;
45909;SDS011;31622;55.416;37.840;2023-03-29T04:52:52;5.28;;;1.50;;
45909;SDS011;31622;55.416;37.840;2023-03-29T04:55:18;5.45;;;1.50;;
45909;SDS011;31622;55.416;37.840;2023-03-29T04:57:58;3.60;;;1.88;;
45909;SDS011;31622;55.416;37.840;2023-03-29T05:00:30;4.53;;;1.65;;
45909;SDS011;31622;55.416;37.840;2023-03-29T05:03:19;5.13;;;1.20;;
45909;SDS011;31622;55.416;37.840;2023-03-29T05:06:04;3.63;;;1.70;;
45909;SDS011;31622;55.416;37.840;2023-03-29T05:08:32;2.70;;;1.40;;
45909;SDS011;31622;55.416;37.840;2023-03-29T05:11:23;2.53;;;1.20;;
45909;SDS011;31622;55.416;37.840;2023-03-29T05:13:51;2.75;;;1.30;;
45909;SDS011;31622;55.416;37.840;2023-03-29T05:16:17;2.72;;;1.67;;
45909;SDS011;31622;55.416;37.840;2023-03-29T05:18:43;2.30;;;1.10;;
45909;SDS011;31622;55.416;37.840;2023-03-29T05:21:09;3.53;;;1.30;;
45909;SDS011;31622;55.416;37.840;2023-03-29T05:23:37;3.72;;;1.35;;
45909;SDS011;31622;55.416;37.840;2023-03-29T05:26:15;2.03;;;1.45;;
45909;SDS011;31622;55.416;37.840;2023-03-29T05:28:47;2.60;;;1.40;;
45909;SDS011;31622;55.416;37.840;2023-03-29T05:31:13;2.50;;;1.23;;
45909;SDS011;31622;55.416;37.840;2023-03-29T05:33:39;2.65;;;1.45;;
45909;SDS011;31622;55.416;37.840;2023-03-29T05:36:06;4.70;;;1.50;;
45909;SDS011;31622;55.416;37.840;2023-03-29T05:38:40;2.10;;;1.20;;
45909;SDS011;31622;55.416;37.840;2023-03-29T05:41:06;2.05;;;1.20;;
45909;SDS011;31622;55.416;37.840;2023-03-29T05:44:02;3.78;;;1.35;;
45909;SDS011;31622;55.416;37.840;2023-03-29T05:46:28;4.10;;;1.70;;
45909;SDS011;31622;55.416;37.840;2023-03-29T05:48:56;4.30;;;1.67;;
45909;SDS011;31622;55.416;37.840;2023-03-29T05:51:37;6.82;;;2.03;;
45909;SDS011;31622;55.416;37.840;2023-03-29T05:54:03;4.32;;;2.08;;
45909;SDS011;31622;55.416;37.840;2023-03-29T05:56:29;3.85;;;2.15;;
45909;SDS011;31622;55.416;37.840;2023-03-29T05:58:55;5.32;;;2.75;;
45909;SDS011;31622;55.416;37.840;2023-03-29T06:01:22;7.85;;;2.95;;
45909;SDS011;31622;55.416;37.840;2023-03-29T06:03:57;3.78;;;2.17;;
45909;SDS011;31622;55.416;37.840;2023-03-29T06:06:30;3.50;;;2.42;;
45909;SDS011;31622;55.416;37.840;2023-03-29T06:08:57;4.63;;;2.50;;
45909;SDS011;31622;55.416;37.840;2023-03-29T06:11:35;4.95;;;2.42;;
45909;SDS011;31622;55.416;37.840;2023-03-29T06:14:19;6.22;;;2.17;;
45909;SDS011;31622;55.416;37.840;2023-03-29T06:16:50;4.93;;;2.30;;
45909;SDS011;31622;55.416;37.840;2023-03-29T06:19:17;4.53;;;2.28;;
45909;SDS011;31622;55.416;37.840;2023-03-29T06:21:44;3.75;;;2.13;;
45909;SDS011;31622;55.416;37.840;2023-03-29T06:24:13;2.83;;;1.88;;
45909;SDS011;31622;55.416;37.840;2023-03-29T06:26:45;4.03;;;2.07;;
45909;SDS011;31622;55.416;37.840;2023-03-29T06:29:11;4.28;;;2.58;;
45909;SDS011;31622;55.416;37.840;2023-03-29T06:31:39;4.53;;;1.70;;
45909;SDS011;31622;55.416;37.840;2023-03-29T06:34:07;3.17;;;2.17;;
45909;SDS011;31622;55.416;37.840;2023-03-29T06:36:55;3.83;;;1.88;;
45909;SDS011;31622;55.416;37.840;2023-03-29T06:39:22;5.40;;;2.35;;
45909;SDS011;31622;55.416;37.840;2023-03-29T06:42:06;12.07;;;2.22;;
45909;SDS011;31622;55.416;37.840;2023-03-29T06:45:04;4.93;;;1.75;;
45909;SDS011;31622;55.416;37.840;2023-03-29T06:47:30;5.55;;;1.60;;
45909;SDS011;31622;55.416;37.840;2023-03-29T06:49:57;4.40;;;2.10;;
45909;SDS011;31622;55.416;37.840;2023-03-29T06:52:48;7.43;;;2.50;;
45909;SDS011;31622;55.416;37.840;2023-03-29T06:55:14;6.20;;;2.40;;
45909;SDS011;31622;55.416;37.840;2023-03-29T06:57:42;5.35;;;1.90;;
45909;SDS011;31622;55.416;37.840;2023-03-29T07:00:08;5.38;;;1.77;;
45909;SDS011;31622;55.416;37.840;2023-03-29T07:03:09;2.58;;;1.55;;
45909;SDS011;31622;55.416;37.840;2023-03-29T07:05:39;3.15;;;1.60;;
45909;SDS011;31622;55.416;37.840;2023-03-29T07:08:09;5.05;;;1.98;;
45909;SDS011;31622;55.416;37.840;2023-03-29T07:10:55;4.10;;;1.55;;
45909;SDS011;31622;55.416;37.840;2023-03-29T07:13:49;4.53;;;1.98;;
45909;SDS011;31622;55.416;37.840;2023-03-29T07:16:18;6.65;;;1.70;;
45909;SDS011;31622;55.416;37.840;2023-03-29T07:19:06;9.60;;;2.47;;
45909;SDS011;31622;55.416;37.840;2023-03-29T07:21:52;6.70;;;2.13;;
45909;SDS011;31622;55.416;37.840;2023-03-29T07:24:20;8.57;;;2.42;;
45909;SDS011;31622;55.416;37.840;2023-03-29T07:26:47;6.80;;;2.28;;
45909;SDS011;31622;55.416;37.840;2023-03-29T07:29:13;5.95;;;2.10;;
45909;SDS011;31622;55.416;37.840;2023-03-29T07:31:40;9.13;;;2.83;;
45909;SDS011;31622;55.416;37.840;2023-03-29T07:34:40;8.55;;;2.70;;
45909;SDS011;31622;55.416;37.840;2023-03-29T07:37:09;8.02;;;2.63;;
45909;SDS011;31622;55.416;37.840;2023-03-29T07:39:36;13.38;;;3.05;;
45909;SDS011;31622;55.416;37.840;2023-03-29T07:42:30;9.43;;;2.95;;
45909;SDS011;31622;55.416;37.840;2023-03-29T07:44:56;11.73;;;3.72;;
45909;SDS011;31622;55.416;37.840;2023-03-29T07:47:26;12.73;;;4.07;;
45909;SDS011;31622;55.416;37.840;2023-03-29T07:49:52;10.15;;;4.03;;
45909;SDS011;31622;55.416;37.840;2023-03-29T07:52:18;11.77;;;3.30;;
45909;SDS011;31622;55.416;37.840;2023-03-29T07:54:44;13.82;;;4.95;;
45909;SDS011;31622;55.416;37.840;2023-03-29T07:57:26;8.77;;;3.88;;
45909;SDS011;31622;55.416;37.840;2023-03-29T07:59:54;12.43;;;3.90;;
45909;SDS011;31622;55.416;37.840;2023-03-29T08:02:24;10.77;;;3.10;;
45909;SDS011;31622;55.416;37.840;2023-03-29T08:04:54;10.07;;;3.45;;
45909;SDS011;31622;55.416;37.840;2023-03-29T08:07:24;7.80;;;4.15;;
45909;SDS011;31622;55.416;37.840;2023-03-29T08:10:18;10.95;;;3.70;;
45909;SDS011;31622;55.416;37.840;2023-03-29T08:13:17;9.90;;;3.78;;
45909;SDS011;31622;55.416;37.840;2023-03-29T08:16:01;14.15;;;3.47;;
45909;SDS011;31622;55.416;37.840;2023-03-29T08:18:33;6.10;;;2.85;;
45909;SDS011;31622;55.416;37.840;2023-03-29T08:20:59;9.82;;;3.00;;
45909;SDS011;31622;55.416;37.840;2023-03-29T08:23:25;7.82;;;3.10;;
45909;SDS011;31622;55.416;37.840;2023-03-29T08:26:17;8.77;;;3.00;;
45909;SDS011;31622;55.416;37.840;2023-03-29T08:28:43;7.85;;;2.05;;
45909;SDS011;31622;55.416;37.840;2023-03-29T08:31:10;5.22;;;3.15;;
45909;SDS011;31622;55.416;37.840;2023-03-29T08:33:38;8.30;;;2.10;;
45909;SDS011;31622;55.416;37.840;2023-03-29T08:36:22;4.20;;;1.80;;
45909;SDS011;31622;55.416;37.840;2023-03-29T08:38:51;5.18;;;2.08;;
45909;SDS011;31622;55.416;37.840;2023-03-29T08:47:16;5.73;;;2.33;;
45909;SDS011;31622;55.416;37.840;2023-03-29T08:49:56;6.82;;;2.13;;
45909;SDS011;31622;55.416;37.840;2023-03-29T08:55:11;5.55;;;1.70;;
45909;SDS011;31622;55.416;37.840;2023-03-29T08:58:17;3.85;;;1.75;;
45909;SDS011;31622;55.416;37.840;2023-03-29T09:00:47;4.32;;;1.90;;
45909;SDS011;31622;55.416;37.840;2023-03-29T09:03:23;4.13;;;1.63;;
45909;SDS011;31622;55.416;37.840;2023-03-29T09:06:01;2.70;;;1.42;;
45909;SDS011;31622;55.416;37.840;2023-03-29T09:08:36;5.53;;;1.70;;
45909;SDS011;31622;55.416;37.840;2023-03-29T09:27:34;2.78;;;1.20;;
45909;SDS011;31622;55.416;37.840;2023-03-29T09:30:20;2.78;;;1.38;;
45909;SDS011;31622;55.416;37.840;2023-03-29T09:39:13;2.75;;;1.30;;
45909;SDS011;31622;55.416;37.840;2023-03-29T09:44:17;3.25;;;1.25;;
45909;SDS011;31622;55.416;37.840;2023-03-29T09:46:48;2.50;;;1.10;;
45909;SDS011;31622;55.416;37.840;2023-03-29T09:49:27;3.80;;;1.35;;
45909;SDS011;31622;55.416;37.840;2023-03-29T09:51:57;7.53;;;1.80;;
45909;SDS011;31622;55.416;37.840;2023-03-29T09:54:28;4.32;;;1.60;;
45909;SDS011;31622;55.416;37.840;2023-03-29T09:57:12;3.55;;;1.70;;
45909;SDS011;31622;55.416;37.840;2023-03-29T09:59:41;4.32;;;1.92;;
45909;SDS011;31622;55.416;37.840;2023-03-29T10:02:08;5.00;;;1.98;;
45909;SDS011;31622;55.416;37.840;2023-03-29T10:04:37;3.03;;;1.40;;
45909;SDS011;31622;55.416;37.840;2023-03-29T10:07:08;4.38;;;1.65;;
45909;SDS011;31622;55.416;37.840;2023-03-29T10:09:54;3.47;;;1.35;;
45909;SDS011;31622;55.416;37.840;2023-03-29T10:12:21;2.95;;;1.35;;
45909;SDS011;31622;55.416;37.840;2023-03-29T10:14:47;4.50;;;1.67;;
45909;SDS011;31622;55.416;37.840;2023-03-29T10:17:19;2.92;;;1.40;;
45909;SDS011;31622;55.416;37.840;2023-03-29T10:20:00;4.22;;;1.58;;
45909;SDS011;31622;55.416;37.840;2023-03-29T10:22:31;3.90;;;1.38;;
45909;SDS011;31622;55.416;37.840;2023-03-29T10:24:59;3.70;;;1.65;;
45909;SDS011;31622;55.416;37.840;2023-03-29T10:27:28;3.40;;;1.40;;
45909;SDS011;31622;55.416;37.840;2023-03-29T10:29:55;2.85;;;1.35;;
45909;SDS011;31622;55.416;37.840;2023-03-29T10:32:35;2.00;;;1.20;;
45909;SDS011;31622;55.416;37.840;2023-03-29T10:35:23;4.55;;;1.20;;
45909;SDS011;31622;55.416;37.840;2023-03-29T10:37:49;2.35;;;1.10;;
45909;SDS011;31622;55.416;37.840;2023-03-29T10:40:20;2.22;;;1.25;;
45909;SDS011;31622;55.416;37.840;2023-03-29T10:42:50;2.88;;;1.50;;
45909;SDS011;31622;55.416;37.840;2023-03-29T10:45:39;3.35;;;1.20;;
45909;SDS011;31622;55.416;37.840;2023-03-29T10:48:04;2.00;;;1.40;;
45909;SDS011;31622;55.416;37.840;2023-03-29T10:50:34;2.45;;;1.42;;
45909;SDS011;31622;55.416;37.840;2023-03-29T10:53:02;3.25;;;1.60;;
45909;SDS011;31622;55.416;37.840;2023-03-29T10:55:40;1.55;;;1.05;;
45909;SDS011;31622;55.416;37.840;2023-03-29T11:01:16;2.25;;;1.27;;
45909;SDS011;31622;55.416;37.840;2023-03-29T11:06:42;2.95;;;0.95;;
45909;SDS011;31622;55.416;37.840;2023-03-29T11:09:24;2.72;;;1.23;;
45909;SDS011;31622;55.416;37.840;2023-03-29T11:12:17;2.45;;;1.20;;
45909;SDS011;31622;55.416;37.840;2023-03-29T11:15:30;3.42;;;1.20;;
45909;SDS011;31622;55.416;37.840;2023-03-29T11:18:06;3.58;;;1.35;;
45909;SDS011;31622;55.416;37.840;2023-03-29T11:20:47;3.00;;;1.23;;
45909;SDS011;31622;55.416;37.840;2023-03-29T11:26:32;6.18;;;2.20;;
45909;SDS011;31622;55.416;37.840;2023-03-29T11:29:17;3.33;;;1.50;;
45909;SDS011;31622;55.416;37.840;2023-03-29T11:42:32;6.73;;;2.30;;
45909;SDS011;31622;55.416;37.840;2023-03-29T11:44:59;7.32;;;2.00;;
45909;SDS011;31622;55.416;37.840;2023-03-29T11:47:30;3.58;;;1.50;;
45909;SDS011;31622;55.416;37.840;2023-03-29T11:55:18;4.03;;;2.00;;
45909;SDS011;31622;55.416;37.840;2023-03-29T11:58:01;11.85;;;2.63;;
45909;SDS011;31622;55.416;37.840;2023-03-29T12:00:41;4.97;;;1.92;;
45909;SDS011;31622;55.416;37.840;2023-03-29T12:03:15;20.52;;;2.88;;
45909;SDS011;31622;55.416;37.840;2023-03-29T12:05:54;20.08;;;2.25;;
45909;SDS011;31622;55.416;37.840;2023-03-29T12:08:37;7.65;;;2.00;;
45909;SDS011;31622;55.416;37.840;2023-03-29T12:13:55;6.53;;;1.67;;
45909;SDS011;31622;55.416;37.840;2023-03-29T12:16:32;4.97;;;1.60;;
45909;SDS011;31622;55.416;37.840;2023-03-29T12:19:17;3.28;;;1.20;;
45909;SDS011;31622;55.416;37.840;2023-03-29T12:21:46;8.50;;;1.35;;
45909;SDS011;31622;55.416;37.840;2023-03-29T12:24:15;4.18;;;1.13;;
45909;SDS011;31622;55.416;37.840;2023-03-29T12:29:35;3.20;;;1.30;;
45909;SDS011;31622;55.416;37.840;2023-03-29T12:38:35;2.00;;;1.13;;
45909;SDS011;31622;55.416;37.840;2023-03-29T12:41:24;2.92;;;1.33;;
45909;SDS011;31622;55.416;37.840;2023-03-29T12:43:59;3.38;;;1.45;;
45909;SDS011;31622;55.416;37.840;2023-03-29T12:46:57;4.43;;;1.00;;
45909;SDS011;31622;55.416;37.840;2023-03-29T12:52:00;3.00;;;1.05;;
45909;SDS011;31622;55.416;37.840;2023-03-29T12:54:37;3.08;;;0.80;;
45909;SDS011;31622;55.416;37.840;2023-03-29T12:57:19;2.13;;;1.13;;
45909;SDS011;31622;55.416;37.840;2023-03-29T12:59:47;3.67;;;1.00;;
45909;SDS011;31622;55.416;37.840;2023-03-29T13:10:00;3.00;;;1.13;;
45909;SDS011;31622;55.416;37.840;2023-03-29T13:12:28;1.90;;;0.80;;
45909;SDS011;31622;55.416;37.840;2023-03-29T13:15:20;2.78;;;0.90;;
45909;SDS011;31622;55.416;37.840;2023-03-29T13:34:09;6.82;;;1.98;;
45909;SDS011;31622;55.416;37.840;2023-03-29T13:37:00;8.80;;;1.67;;
45909;SDS011;31622;55.416;37.840;2023-03-29T13:39:50;5.75;;;1.33;;
45909;SDS011;31622;55.416;37.840;2023-03-29T13:42:19;6.38;;;1.77;;
45909;SDS011;31622;55.416;37.840;2023-03-29T13:44:48;6.57;;;1.20;;
45909;SDS011;31622;55.416;37.840;2023-03-29T13:49:45;2.30;;;1.38;;
45909;SDS011;31622;55.416;37.840;2023-03-29T13:52:23;3.55;;;1.10;;
45909;SDS011;31622;55.416;37.840;2023-03-29T14:00:27;2.00;;;0.90;;
45909;SDS011;31622;55.416;37.840;2023-03-29T14:02:57;3.30;;;1.15;;
45909;SDS011;31622;55.416;37.840;2023-03-29T14:05:35;2.58;;;1.00;;
45909;SDS011;31622;55.416;37.840;2023-03-29T14:08:06;3.10;;;0.90;;
45909;SDS011;31622;55.416;37.840;2023-03-29T14:10:39;3.63;;;1.35;;
45909;SDS011;31622;55.416;37.840;2023-03-29T14:13:06;1.70;;;0.95;;
45909;SDS011;31622;55.416;37.840;2023-03-29T14:15:44;3.25;;;1.40;;
45909;SDS011;31622;55.416;37.840;2023-03-29T14:18:15;2.92;;;0.95;;
45909;SDS011;31622;55.416;37.840;2023-03-29T14:20:44;2.53;;;0.95;;
45909;SDS011;31622;55.416;37.840;2023-03-29T14:23:11;3.00;;;1.10;;
45909;SDS011;31622;55.416;37.840;2023-03-29T14:25:41;3.00;;;1.08;;
45909;SDS011;31622;55.416;37.840;2023-03-29T14:30:52;2.50;;;1.08;;
45909;SDS011;31622;55.416;37.840;2023-03-29T14:33:38;2.38;;;1.02;;
45909;SDS011;31622;55.416;37.840;2023-03-29T14:36:03;4.10;;;1.10;;
45909;SDS011;31622;55.416;37.840;2023-03-29T14:38:30;2.15;;;0.90;;
45909;SDS011;31622;55.416;37.840;2023-03-29T14:40:59;1.88;;;1.10;;
45909;SDS011;31622;55.416;37.840;2023-03-29T14:43:26;2.33;;;1.23;;
45909;SDS011;31622;55.416;37.840;2023-03-29T14:45:54;2.17;;;1.10;;
45909;SDS011;31622;55.416;37.840;2023-03-29T14:48:20;2.72;;;1.00;;
45909;SDS011;31622;55.416;37.840;2023-03-29T14:50:47;2.13;;;1.00;;
45909;SDS011;31622;55.416;37.840;2023-03-29T14:53:15;3.97;;;1.40;;
45909;SDS011;31622;55.416;37.840;2023-03-29T14:55:43;2.05;;;1.15;;
45909;SDS011;31622;55.416;37.840;2023-03-29T14:58:14;2.40;;;1.10;;
45909;SDS011;31622;55.416;37.840;2023-03-29T15:00:44;3.78;;;1.05;;
45909;SDS011;31622;55.416;37.840;2023-03-29T15:03:14;2.63;;;1.35;;
45909;SDS011;31622;55.416;37.840;2023-03-29T15:08:36;2.00;;;1.13;;
45909;SDS011;31622;55.416;37.840;2023-03-29T15:11:08;2.08;;;1.20;;
45909;SDS011;31622;55.416;37.840;2023-03-29T15:13:37;1.90;;;1.10;;
45909;SDS011;31622;55.416;37.840;2023-03-29T15:16:04;2.83;;;0.90;;
45909;SDS011;31622;55.416;37.840;2023-03-29T15:18:35;2.05;;;1.30;;
45909;SDS011;31622;55.416;37.840;2023-03-29T15:21:06;2.22;;;1.23;;
45909;SDS011;31622;55.416;37.840;2023-03-29T15:24:16;2.25;;;1.38;;
45909;SDS011;31622;55.416;37.840;2023-03-29T15:29:04;2.95;;;1.50;;
45909;SDS011;31622;55.416;37.840;2023-03-29T15:31:37;1.98;;;1.10;;
45909;SDS011;31622;55.416;37.840;2023-03-29T15:34:12;1.85;;;1.00;;
45909;SDS011;31622;55.416;37.840;2023-03-29T15:36:48;3.35;;;1.60;;
45909;SDS011;31622;55.416;37.840;2023-03-29T15:39:14;2.50;;;1.25;;
45909;SDS011;31622;55.416;37.840;2023-03-29T15:41:41;2.60;;;1.00;;
45909;SDS011;31622;55.416;37.840;2023-03-29T15:44:08;2.58;;;1.13;;
45909;SDS011;31622;55.416;37.840;2023-03-29T15:46:35;2.85;;;1.27;;
45909;SDS011;31622;55.416;37.840;2023-03-29T15:49:01;3.80;;;1.10;;
45909;SDS011;31622;55.416;37.840;2023-03-29T15:51:28;1.73;;;1.10;;
45909;SDS011;31622;55.416;37.840;2023-03-29T15:53:53;3.05;;;1.30;;
45909;SDS011;31622;55.416;37.840;2023-03-29T15:56:19;2.58;;;1.40;;
45909;SDS011;31622;55.416;37.840;2023-03-29T15:58:47;2.08;;;1.38;;
45909;SDS011;31622;55.416;37.840;2023-03-29T16:01:32;3.67;;;1.55;;
45909;SDS011;31622;55.416;37.840;2023-03-29T16:04:04;2.33;;;1.40;;
45909;SDS011;31622;55.416;37.840;2023-03-29T16:06:31;3.33;;;1.20;;
45909;SDS011;31622;55.416;37.840;2023-03-29T16:08:57;4.30;;;1.70;;
45909;SDS011;31622;55.416;37.840;2023-03-29T16:11:23;2.55;;;1.45;;
45909;SDS011;31622;55.416;37.840;2023-03-29T16:13:50;3.03;;;1.67;;
45909;SDS011;31622;55.416;37.840;2023-03-29T16:16:16;3.75;;;1.50;;
45909;SDS011;31622;55.416;37.840;2023-03-29T16:18:41;2.78;;;1.35;;
45909;SDS011;31622;55.416;37.840;2023-03-29T16:21:11;2.97;;;1.40;;
45909;SDS011;31622;55.416;37.840;2023-03-29T16:23:38;5.90;;;1.75;;
45909;SDS011;31622;55.416;37.840;2023-03-29T16:26:04;4.65;;;2.08;;
45909;SDS011;31622;55.416;37.840;2023-03-29T16:28:31;3.22;;;1.55;;
45909;SDS011;31622;55.416;37.840;2023-03-29T16:30:56;2.97;;;1.45;;
45909;SDS011;31622;55.416;37.840;2023-03-29T16:33:22;4.43;;;2.10;;
45909;SDS011;31622;55.416;37.840;2023-03-29T16:35:48;3.88;;;1.50;;
45909;SDS011;31622;55.416;37.840;2023-03-29T16:38:13;3.95;;;1.42;;
45909;SDS011;31622;55.416;37.840;2023-03-29T16:40:39;3.65;;;1.60;;
45909;SDS011;31622;55.416;37.840;2023-03-29T16:43:05;3.10;;;1.38;;
45909;SDS011;31622;55.416;37.840;2023-03-29T16:45:31;3.92;;;1.65;;
45909;SDS011;31622;55.416;37.840;2023-03-29T16:47:57;3.95;;;1.58;;
45909;SDS011;31622;55.416;37.840;2023-03-29T16:50:22;2.85;;;1.48;;
45909;SDS011;31622;55.416;37.840;2023-03-29T16:52:48;2.55;;;1.40;;
45909;SDS011;31622;55.416;37.840;2023-03-29T16:55:16;3.90;;;1.80;;
45909;SDS011;31622;55.416;37.840;2023-03-29T16:57:43;7.15;;;2.40;;
45909;SDS011;31622;55.416;37.840;2023-03-29T17:00:11;13.02;;;3.88;;
45909;SDS011;31622;55.416;37.840;2023-03-29T17:02:40;18.20;;;6.18;;
45909;SDS011;31622;55.416;37.840;2023-03-29T17:05:06;28.25;;;7.05;;
45909;SDS011;31622;55.416;37.840;2023-03-29T17:07:33;27.08;;;7.38;;
45909;SDS011;31622;55.416;37.840;2023-03-29T17:09:59;28.25;;;7.85;;
45909;SDS011;31622;55.416;37.840;2023-03-29T17:12:29;26.98;;;8.07;;
45909;SDS011;31622;55.416;37.840;2023-03-29T17:14:55;23.67;;;7.60;;
45909;SDS011;31622;55.416;37.840;2023-03-29T17:17:21;27.15;;;8.10;;